Time;durP1;ratioP1;P1;durP2;ratioP2;P2;SDS_P1;SDS_P2;PMS_P1;PMS_P2;Temp;Humidity;BMP_temperature;BMP_pressure;BME280_temperature;BME280_humidity;BME280_pressure;Samples;Min_cycle;Max_cycle;Signal;HPM_P1;HPM_P2
2022/11/10 00:00:47;;;;;;;0.93;0.60;;;19.90;79.00;;;;;;6273438;22;45306;-69
2022/11/10 00:03:13;;;;;;;1.88;0.70;;;19.90;78.50;;;;;;6274054;22;45459;-69
2022/11/10 00:05:40;;;;;;;0.70;0.45;;;19.90;78.40;;;;;;6273074;22;45419;-69
2022/11/10 00:08:09;;;;;;;2.33;0.68;;;19.90;78.70;;;;;;6273550;22;47531;-69
2022/11/10 00:10:55;;;;;;;2.03;0.57;;;19.90;78.60;;;;;;6272293;22;45216;-69
2022/11/10 00:13:25;;;;;;;1.30;0.50;;;19.90;78.50;;;;;;6274145;22;45203;-69
2022/11/10 00:18:36;;;;;;;0.70;0.40;;;19.90;78.70;;;;;;6272979;22;45703;-69
2022/11/10 00:21:05;;;;;;;2.15;0.45;;;19.90;78.70;;;;;;6273368;22;45267;-69
2022/11/10 00:23:32;;;;;;;1.10;0.65;;;19.90;78.70;;;;;;6273152;22;45430;-69
2022/11/10 00:25:59;;;;;;;1.30;0.50;;;19.90;78.50;;;;;;6273881;22;45338;-69
2022/11/10 00:28:31;;;;;;;1.30;0.50;;;19.90;78.80;;;;;;6272580;22;45322;-69
2022/11/10 00:30:58;;;;;;;1.13;0.52;;;19.90;79.10;;;;;;6273557;22;45441;-69
2022/11/10 00:33:25;;;;;;;1.63;0.55;;;19.90;79.10;;;;;;6273931;22;45311;-69
2022/11/10 00:35:52;;;;;;;0.63;0.35;;;20.00;79.10;;;;;;6272922;22;45506;-69
2022/11/10 00:38:19;;;;;;;0.63;0.50;;;19.90;78.90;;;;;;6273411;22;47403;-69
2022/11/10 00:40:45;;;;;;;1.25;0.45;;;19.90;78.90;;;;;;6272209;22;45205;-69
2022/11/10 00:43:12;;;;;;;1.13;0.40;;;20.00;79.10;;;;;;6273158;22;45224;-69
2022/11/10 00:45:43;;;;;;;2.90;0.50;;;19.90;78.60;;;;;;6272949;22;45212;-69
2022/11/10 00:48:09;;;;;;;0.47;0.43;;;19.90;78.60;;;;;;6272936;22;45434;-69
2022/11/10 00:50:36;;;;;;;2.55;0.68;;;19.90;78.50;;;;;;6272651;22;45378;-69
2022/11/10 00:53:03;;;;;;;1.92;0.52;;;19.90;78.60;;;;;;6273175;22;45372;-69
2022/11/10 00:55:30;;;;;;;2.08;0.60;;;19.90;78.50;;;;;;6273194;22;45315;-69
2022/11/10 00:57:57;;;;;;;0.98;0.60;;;19.90;78.50;;;;;;6273030;22;45438;-69
2022/11/10 01:00:24;;;;;;;0.68;0.50;;;19.90;78.20;;;;;;6271878;22;45346;-69
2022/11/10 01:02:52;;;;;;;0.60;0.45;;;19.90;78.50;;;;;;6273628;22;45311;-69
2022/11/10 01:05:19;;;;;;;2.38;0.57;;;19.90;78.20;;;;;;6272406;22;45214;-69
2022/11/10 01:07:46;;;;;;;1.65;0.65;;;19.90;78.20;;;;;;6273563;22;48120;-69
2022/11/10 01:10:13;;;;;;;0.73;0.45;;;19.90;78.50;;;;;;6271819;22;45297;-69
2022/11/10 01:12:40;;;;;;;2.15;0.30;;;19.90;78.10;;;;;;6272656;22;45419;-69
2022/11/10 01:15:08;;;;;;;1.35;0.57;;;19.90;78.60;;;;;;6272249;22;45292;-69
2022/11/10 01:17:35;;;;;;;2.38;0.70;;;19.90;78.70;;;;;;6272083;22;47391;-69
2022/11/10 01:20:07;;;;;;;1.05;0.52;;;19.90;78.50;;;;;;6272152;22;45348;-69
2022/11/10 01:22:34;;;;;;;1.48;0.77;;;19.90;78.80;;;;;;6272351;22;45278;-69
2022/11/10 01:25:00;;;;;;;1.35;0.40;;;19.90;78.70;;;;;;6273098;22;45448;-69
2022/11/10 01:27:27;;;;;;;1.75;0.50;;;19.90;78.80;;;;;;6272146;22;48057;-69
2022/11/10 01:29:54;;;;;;;1.10;0.45;;;19.90;78.70;;;;;;6271941;22;46053;-69
2022/11/10 01:32:21;;;;;;;1.15;0.50;;;19.90;78.90;;;;;;6272961;22;45215;-69
2022/11/10 01:34:47;;;;;;;1.33;0.60;;;19.90;78.90;;;;;;6272583;22;45513;-69
2022/11/10 01:37:16;;;;;;;0.63;0.30;;;20.00;79.10;;;;;;6272951;22;46563;-69
2022/11/10 01:39:42;;;;;;;1.42;0.40;;;19.90;78.90;;;;;;6271307;22;45285;-69
2022/11/10 01:42:09;;;;;;;1.13;0.43;;;19.90;78.60;;;;;;6271945;22;45251;-69
2022/11/10 01:44:41;;;;;;;1.20;0.50;;;19.90;78.60;;;;;;6273070;22;45229;-69
2022/11/10 01:47:09;;;;;;;2.58;0.55;;;19.90;78.70;;;;;;6271756;22;45307;-69
2022/11/10 01:49:36;;;;;;;0.85;0.50;;;19.90;78.30;;;;;;6272541;22;45215;-69
2022/11/10 01:52:07;;;;;;;1.90;0.60;;;19.90;78.40;;;;;;6273362;22;45327;-68
2022/11/10 01:54:39;;;;;;;1.55;0.50;;;19.90;78.50;;;;;;6274869;22;45286;-69
2022/11/10 01:57:09;;;;;;;0.77;0.40;;;19.90;78.20;;;;;;6274081;22;45352;-68
2022/11/10 01:59:41;;;;;;;1.23;0.50;;;19.90;78.10;;;;;;6273645;22;45310;-69
2022/11/10 02:02:12;;;;;;;1.92;0.60;;;19.90;78.20;;;;;;6274430;22;45262;-69
2022/11/10 02:04:39;;;;;;;0.73;0.50;;;19.90;78.10;;;;;;6273948;22;45346;-69
2022/11/10 02:07:08;;;;;;;2.78;0.70;;;19.90;78.20;;;;;;6274135;22;47478;-69
2022/11/10 02:09:36;;;;;;;0.90;0.50;;;19.90;78.20;;;;;;6273376;22;45288;-68
2022/11/10 02:12:03;;;;;;;1.77;0.40;;;19.90;78.20;;;;;;6273724;22;45321;-69
2022/11/10 02:14:29;;;;;;;0.98;0.50;;;19.90;78.20;;;;;;6274315;22;45370;-69
2022/11/10 02:16:58;;;;;;;1.25;0.63;;;19.90;78.20;;;;;;6273149;22;46558;-69
2022/11/10 02:19:26;;;;;;;2.00;0.50;;;19.90;78.80;;;;;;6273603;22;45411;-69
2022/11/10 02:21:54;;;;;;;1.35;0.70;;;19.90;78.50;;;;;;6273670;22;45431;-68
2022/11/10 02:24:21;;;;;;;1.58;0.45;;;19.90;78.40;;;;;;6274731;22;45460;-69
2022/11/10 02:26:52;;;;;;;0.30;0.30;;;19.90;78.70;;;;;;6273829;22;47451;-69
2022/11/10 02:29:20;;;;;;;0.80;0.50;;;19.90;78.50;;;;;;6273865;22;45321;-69
2022/11/10 02:31:47;;;;;;;1.05;0.50;;;19.90;78.40;;;;;;6274171;22;45314;-69
2022/11/10 02:34:14;;;;;;;1.38;0.60;;;19.90;78.50;;;;;;6274003;22;45242;-69
2022/11/10 02:36:40;;;;;;;1.77;0.50;;;19.90;78.20;;;;;;6274184;22;47531;-69
2022/11/10 02:39:09;;;;;;;0.98;0.30;;;19.90;78.20;;;;;;6273382;22;45300;-69
2022/11/10 02:41:36;;;;;;;2.38;0.57;;;19.90;78.10;;;;;;6272978;22;45249;-69
2022/11/10 02:44:04;;;;;;;1.67;0.32;;;19.90;78.20;;;;;;6273932;22;45522;-69
2022/11/10 02:46:31;;;;;;;1.10;0.60;;;19.90;78.20;;;;;;6273786;22;45324;-69
2022/11/10 02:48:58;;;;;;;2.28;0.45;;;19.90;78.10;;;;;;6273052;22;45275;-69
2022/11/10 02:51:25;;;;;;;0.90;0.30;;;19.90;78.20;;;;;;6273990;22;45250;-68
2022/11/10 02:53:51;;;;;;;1.95;0.50;;;19.90;78.20;;;;;;6274643;22;45646;-69
2022/11/10 02:56:19;;;;;;;2.53;0.40;;;19.90;78.10;;;;;;6272988;22;46547;-69
2022/11/10 02:58:47;;;;;;;0.65;0.40;;;19.90;78.10;;;;;;6273537;22;45351;-69
2022/11/10 03:01:13;;;;;;;1.23;0.50;;;19.90;78.20;;;;;;6273271;22;45255;-68
2022/11/10 03:03:40;;;;;;;0.80;0.35;;;19.90;78.20;;;;;;6273466;22;45243;-69
2022/11/10 03:06:07;;;;;;;1.33;0.57;;;19.90;78.20;;;;;;6273837;22;47570;-68
2022/11/10 03:08:34;;;;;;;1.20;0.50;;;19.90;78.10;;;;;;6273191;22;45345;-70
2022/11/10 03:11:00;;;;;;;1.88;0.60;;;19.90;78.30;;;;;;6273714;22;45410;-69
2022/11/10 03:13:29;;;;;;;0.85;0.35;;;19.90;78.10;;;;;;6273848;22;45231;-68
2022/11/10 03:15:56;;;;;;;0.82;0.50;;;19.90;78.40;;;;;;6273459;22;46509;-69
2022/11/10 03:18:24;;;;;;;1.80;0.65;;;19.90;78.20;;;;;;6273750;22;45259;-69
2022/11/10 03:20:51;;;;;;;1.98;0.55;;;19.90;78.40;;;;;;6272646;22;45450;-69
2022/11/10 03:23:18;;;;;;;1.65;0.60;;;19.90;78.40;;;;;;6274063;22;45276;-69
2022/11/10 03:25:45;;;;;;;0.60;0.40;;;19.90;78.20;;;;;;6273687;22;46236;-69
2022/11/10 03:28:13;;;;;;;2.05;0.60;;;19.90;78.20;;;;;;6274377;22;45274;-69
2022/11/10 03:30:41;;;;;;;1.30;0.52;;;19.90;78.10;;;;;;6273265;22;45298;-69
2022/11/10 03:33:08;;;;;;;2.75;0.40;;;19.90;78.20;;;;;;6274461;22;45529;-69
2022/11/10 03:35:35;;;;;;;3.22;0.60;;;19.90;78.10;;;;;;6273679;22;45327;-69
2022/11/10 03:38:02;;;;;;;1.48;0.47;;;19.90;78.20;;;;;;6273149;22;45355;-69
2022/11/10 03:40:30;;;;;;;2.90;0.50;;;19.90;78.20;;;;;;6273126;22;45350;-69
2022/11/10 03:42:56;;;;;;;2.88;0.63;;;19.90;78.10;;;;;;6272773;22;45282;-69
2022/11/10 03:45:23;;;;;;;0.82;0.45;;;19.90;78.10;;;;;;6273568;22;48018;-68
2022/11/10 03:47:51;;;;;;;0.45;0.30;;;19.90;78.10;;;;;;6272952;22;45291;-69
2022/11/10 03:50:18;;;;;;;1.15;0.57;;;19.90;78.20;;;;;;6273070;22;45298;-69
2022/11/10 03:52:46;;;;;;;0.93;0.40;;;19.90;78.10;;;;;;6272696;22;45382;-69
2022/11/10 03:55:15;;;;;;;1.65;0.60;;;19.90;78.10;;;;;;6272613;22;47471;-69
2022/11/10 03:57:42;;;;;;;2.03;0.57;;;19.90;78.20;;;;;;6273249;22;45315;-69
2022/11/10 04:00:10;;;;;;;1.13;0.40;;;19.90;78.20;;;;;;6272133;22;45530;-69
2022/11/10 04:02:37;;;;;;;1.98;0.65;;;19.90;78.10;;;;;;6273801;22;45461;-69
2022/11/10 04:10:42;;;;;;;1.27;0.40;;;19.90;78.10;;;;;;6273321;22;45341;-69
2022/11/10 04:15:53;;;;;;;1.38;0.50;;;19.90;78.20;;;;;;6273809;22;45893;-69
2022/11/10 04:18:28;;;;;;;1.65;0.65;;;19.90;78.10;;;;;;6273489;22;45408;-69
2022/11/10 04:20:58;;;;;;;1.40;0.50;;;19.90;78.10;;;;;;6273099;22;45415;-69
2022/11/10 04:23:33;;;;;;;2.40;0.73;;;19.90;78.20;;;;;;6273162;22;45315;-69
2022/11/10 04:28:48;;;;;;;1.80;0.68;;;19.90;78.10;;;;;;6272683;22;45513;-68
2022/11/10 04:31:16;;;;;;;0.88;0.35;;;19.90;78.10;;;;;;6273819;22;45248;-69
2022/11/10 04:33:43;;;;;;;0.95;0.50;;;19.90;79.20;;;;;;6273452;22;45445;-69
2022/11/10 04:36:13;;;;;;;2.20;0.38;;;19.90;78.10;;;;;;6272123;22;47593;-68
2022/11/10 04:38:40;;;;;;;1.77;0.40;;;19.90;78.20;;;;;;6273271;22;45214;-69
2022/11/10 04:41:08;;;;;;;2.83;0.50;;;19.90;78.20;;;;;;6272240;22;45380;-69
2022/11/10 04:43:35;;;;;;;1.75;0.70;;;19.90;78.20;;;;;;6271888;22;45379;-69
2022/11/10 04:46:04;;;;;;;2.03;0.80;;;19.90;78.10;;;;;;6270747;22;46263;-69
2022/11/10 04:48:32;;;;;;;1.30;0.47;;;19.90;78.10;;;;;;6272869;22;45392;-69
2022/11/10 04:51:03;;;;;;;1.35;0.60;;;19.90;78.10;;;;;;6272535;22;45523;-69
2022/11/10 04:53:31;;;;;;;1.27;0.47;;;19.90;78.10;;;;;;6273376;22;45418;-69
2022/11/10 04:55:58;;;;;;;1.52;0.52;;;19.90;78.10;;;;;;6273144;22;47144;-68
2022/11/10 04:58:25;;;;;;;1.45;0.50;;;19.90;78.10;;;;;;6272514;22;45299;-69
2022/11/10 05:00:51;;;;;;;1.90;0.68;;;19.90;78.10;;;;;;6272301;22;45432;-69
2022/11/10 05:03:18;;;;;;;1.30;0.50;;;19.90;78.20;;;;;;6272608;22;45368;-69
2022/11/10 05:05:45;;;;;;;1.55;0.55;;;19.90;78.10;;;;;;6273019;22;46360;-70
2022/11/10 05:08:12;;;;;;;1.27;0.50;;;19.90;78.10;;;;;;6273389;22;45393;-69
2022/11/10 05:10:41;;;;;;;1.38;0.35;;;19.90;78.20;;;;;;6271249;22;45343;-69
2022/11/10 05:13:07;;;;;;;1.63;0.50;;;19.90;78.20;;;;;;6272954;22;45414;-69
2022/11/10 05:15:34;;;;;;;0.90;0.32;;;19.90;78.10;;;;;;6268461;22;47971;-69
2022/11/10 05:18:01;;;;;;;0.95;0.50;;;19.90;78.20;;;;;;6271078;22;45312;-69
2022/11/10 05:20:28;;;;;;;1.25;0.40;;;19.90;78.10;;;;;;6271823;22;45243;-68
2022/11/10 05:25:43;;;;;;;2.40;0.50;;;19.90;78.20;;;;;;6272910;22;45402;-69
2022/11/10 05:28:12;;;;;;;1.35;0.57;;;19.90;78.10;;;;;;6273920;22;45427;-69
2022/11/10 05:30:40;;;;;;;2.15;0.73;;;19.90;78.10;;;;;;6273930;22;45389;-69
2022/11/10 05:33:07;;;;;;;1.67;0.60;;;19.90;78.10;;;;;;6274316;22;45418;-69
2022/11/10 05:35:34;;;;;;;1.80;0.60;;;19.90;78.10;;;;;;6274201;22;47391;-69
2022/11/10 05:38:01;;;;;;;1.10;0.60;;;19.90;78.10;;;;;;6274148;22;45327;-69
2022/11/10 05:40:29;;;;;;;1.95;0.45;;;19.90;78.20;;;;;;6273238;22;45207;-69
2022/11/10 05:42:57;;;;;;;1.55;0.57;;;19.90;78.10;;;;;;6273898;22;45296;-68
2022/11/10 05:45:25;;;;;;;1.00;0.50;;;19.90;78.10;;;;;;6273573;22;48030;-69
2022/11/10 05:47:52;;;;;;;0.70;0.40;;;19.90;78.20;;;;;;6274070;22;45289;-68
2022/11/10 05:50:21;;;;;;;2.53;0.55;;;19.90;78.10;;;;;;6272104;22;45310;-69
2022/11/10 05:52:50;;;;;;;1.35;0.50;;;19.90;78.20;;;;;;6274986;22;45523;-69
2022/11/10 05:55:19;;;;;;;1.23;0.30;;;19.90;78.20;;;;;;6272682;22;46871;-70
2022/11/10 05:57:47;;;;;;;1.65;0.47;;;19.90;78.20;;;;;;6273845;22;45287;-69
2022/11/10 06:00:20;;;;;;;1.55;0.50;;;19.90;78.10;;;;;;6271538;22;45260;-69
2022/11/10 06:02:55;;;;;;;1.17;0.60;;;19.90;78.20;;;;;;6272637;22;45235;-69
2022/11/10 06:05:22;;;;;;;2.58;0.75;;;19.90;78.10;;;;;;6272716;22;46389;-69
2022/11/10 06:07:49;;;;;;;1.33;0.55;;;19.90;78.20;;;;;;6271925;22;45327;-69
2022/11/10 06:10:16;;;;;;;0.73;0.50;;;19.90;78.10;;;;;;6271593;22;45374;-69
2022/11/10 06:12:43;;;;;;;1.80;0.52;;;19.90;78.00;;;;;;6272304;22;45300;-69
2022/11/10 06:15:10;;;;;;;4.05;0.82;;;19.90;77.90;;;;;;6271761;22;46394;-69
2022/11/10 06:17:38;;;;;;;1.33;0.45;;;19.90;77.70;;;;;;6272916;22;45360;-69
2022/11/10 06:20:06;;;;;;;2.15;0.80;;;19.90;77.80;;;;;;6271176;22;45301;-69
2022/11/10 06:22:33;;;;;;;1.30;0.50;;;19.90;77.90;;;;;;6272969;22;45422;-69
2022/11/10 06:25:00;;;;;;;1.98;0.57;;;19.90;77.80;;;;;;6272505;22;45349;-69
2022/11/10 06:27:27;;;;;;;1.35;0.60;;;19.90;78.20;;;;;;6272709;22;45389;-68
2022/11/10 06:29:54;;;;;;;2.05;0.50;;;19.90;78.10;;;;;;6271457;22;45281;-69
2022/11/10 06:32:21;;;;;;;2.10;0.43;;;19.90;78.10;;;;;;6272161;22;45323;-69
2022/11/10 06:34:49;;;;;;;0.95;0.63;;;19.90;78.20;;;;;;6273363;22;47373;-69
2022/11/10 06:37:15;;;;;;;1.27;0.50;;;19.90;78.10;;;;;;6272092;22;45421;-68
2022/11/10 06:39:42;;;;;;;1.17;0.45;;;19.90;78.20;;;;;;6272980;22;45282;-69
2022/11/10 06:42:09;;;;;;;2.15;0.57;;;19.90;78.10;;;;;;6268527;22;45393;-69
2022/11/10 06:44:36;;;;;;;3.20;0.85;;;19.90;78.20;;;;;;6270842;22;46349;-68
2022/11/10 06:47:03;;;;;;;4.50;0.73;;;19.90;78.10;;;;;;6273054;22;45984;-69
2022/11/10 06:49:30;;;;;;;1.10;0.40;;;19.90;78.10;;;;;;6272146;22;45347;-68
2022/11/10 06:51:58;;;;;;;1.80;0.60;;;19.90;78.10;;;;;;6273539;22;45430;-68
2022/11/10 06:54:25;;;;;;;1.65;0.52;;;19.90;78.20;;;;;;6273064;22;46460;-68
2022/11/10 06:56:51;;;;;;;0.68;0.40;;;19.90;78.20;;;;;;6272319;22;45240;-69
2022/11/10 06:59:18;;;;;;;1.52;0.50;;;19.90;78.10;;;;;;6272685;22;45311;-68
2022/11/10 07:01:45;;;;;;;1.00;0.40;;;19.90;78.20;;;;;;6271897;22;45453;-68
2022/11/10 07:04:14;;;;;;;1.10;0.50;;;19.90;78.10;;;;;;6271557;22;47392;-68
2022/11/10 07:06:41;;;;;;;2.25;0.55;;;19.90;78.20;;;;;;6270633;22;45462;-68
2022/11/10 07:09:09;;;;;;;2.10;0.60;;;19.90;78.10;;;;;;6271846;22;45200;-68
2022/11/10 07:11:36;;;;;;;1.50;0.45;;;19.90;78.10;;;;;;6272106;22;45565;-69
2022/11/10 07:14:02;;;;;;;2.58;0.70;;;19.80;78.10;;;;;;6271491;22;46365;-68
2022/11/10 07:16:29;;;;;;;1.02;0.40;;;19.90;78.20;;;;;;6271404;22;45440;-68
2022/11/10 07:18:56;;;;;;;2.25;0.50;;;19.80;78.10;;;;;;6272408;22;45584;-69
2022/11/10 07:21:23;;;;;;;2.10;0.60;;;19.80;78.10;;;;;;6270728;22;45367;-68
2022/11/10 07:23:50;;;;;;;3.92;0.52;;;19.80;78.00;;;;;;6273052;22;47524;-69
2022/11/10 07:26:18;;;;;;;1.77;0.50;;;19.90;78.10;;;;;;6273122;22;45279;-68
2022/11/10 07:28:44;;;;;;;3.20;0.80;;;19.90;78.20;;;;;;6272042;22;45274;-68
2022/11/10 07:31:11;;;;;;;1.20;0.50;;;19.80;78.10;;;;;;6270241;22;45334;-68
2022/11/10 07:33:38;;;;;;;1.95;0.70;;;19.90;78.10;;;;;;6272005;22;46634;-68
2022/11/10 07:36:06;;;;;;;2.15;0.60;;;19.90;78.20;;;;;;6271484;22;45447;-69
2022/11/10 07:38:32;;;;;;;2.10;0.50;;;19.90;78.20;;;;;;6272156;22;45275;-69
2022/11/10 07:40:59;;;;;;;2.88;0.57;;;19.90;78.20;;;;;;6270610;22;45611;-68
2022/11/10 07:43:27;;;;;;;1.58;0.50;;;19.90;78.20;;;;;;6273327;22;47393;-68
2022/11/10 07:45:54;;;;;;;1.27;0.60;;;19.90;78.20;;;;;;6273783;22;45255;-68
2022/11/10 07:48:21;;;;;;;0.98;0.50;;;19.90;78.10;;;;;;6270917;22;45327;-68
2022/11/10 07:50:50;;;;;;;0.52;0.30;;;19.90;79.20;;;;;;6273245;22;45282;-69
2022/11/10 07:53:18;;;;;;;2.35;0.70;;;19.90;78.20;;;;;;6273087;22;46574;-68
2022/11/10 07:55:45;;;;;;;1.48;0.55;;;19.90;78.10;;;;;;6273387;22;45442;-68
2022/11/10 07:58:14;;;;;;;3.40;0.68;;;19.90;78.20;;;;;;6274109;22;45243;-68
2022/11/10 08:00:45;;;;;;;1.25;0.47;;;19.90;78.10;;;;;;6272335;22;45239;-68
2022/11/10 08:03:13;;;;;;;1.48;0.65;;;19.90;78.20;;;;;;6273844;22;46996;-69
2022/11/10 08:05:41;;;;;;;2.03;0.65;;;19.90;78.10;;;;;;6273135;22;45426;-68
2022/11/10 08:08:08;;;;;;;1.60;0.47;;;19.90;78.20;;;;;;6274074;22;45362;-68
2022/11/10 08:10:35;;;;;;;0.82;0.50;;;19.90;78.20;;;;;;6272785;22;45200;-69
2022/11/10 08:13:04;;;;;;;1.45;0.50;;;19.90;78.20;;;;;;6274108;22;46566;-68
2022/11/10 08:15:33;;;;;;;0.82;0.40;;;19.90;78.10;;;;;;6273155;22;45762;-69
2022/11/10 08:18:01;;;;;;;0.57;0.40;;;19.80;78.10;;;;;;6272953;22;45213;-69
2022/11/10 08:20:29;;;;;;;1.00;0.43;;;19.80;78.10;;;;;;6273191;22;45439;-69
2022/11/10 08:22:59;;;;;;;1.60;0.60;;;19.80;77.60;;;;;;6272842;22;45347;-69
2022/11/10 08:25:26;;;;;;;1.25;0.60;;;19.90;77.60;;;;;;6272775;22;45339;-69
2022/11/10 08:27:58;;;;;;;0.98;0.40;;;19.90;77.70;;;;;;6272322;22;45263;-70
2022/11/10 08:30:30;;;;;;;0.82;0.38;;;19.90;77.50;;;;;;6272980;22;45532;-66
2022/11/10 08:32:58;;;;;;;1.88;0.47;;;19.90;77.40;;;;;;6275550;22;45462;-69
2022/11/10 08:35:28;;;;;;;3.22;0.82;;;19.90;77.40;;;;;;6275235;22;45208;-69
2022/11/10 08:37:55;;;;;;;1.90;0.60;;;19.90;77.30;;;;;;6272199;22;45268;-69
2022/11/10 08:40:26;;;;;;;2.15;0.70;;;19.90;77.30;;;;;;6271093;22;45216;-69
2022/11/10 08:42:58;;;;;;;4.22;1.10;;;19.90;77.10;;;;;;6272377;22;47511;-69
2022/11/10 08:45:25;;;;;;;4.00;0.52;;;19.90;77.10;;;;;;6272242;22;45212;-69
2022/11/10 08:47:57;;;;;;;2.25;0.90;;;19.90;75.90;;;;;;6272955;22;45429;-69
2022/11/10 08:50:25;;;;;;;2.45;0.63;;;19.90;75.00;;;;;;6272593;22;45216;-69
2022/11/10 08:52:53;;;;;;;2.97;0.85;;;20.00;74.40;;;;;;6273233;22;47031;-69
2022/11/10 08:55:20;;;;;;;3.03;0.88;;;19.90;73.60;;;;;;6271293;22;45299;-69
2022/11/10 08:57:47;;;;;;;1.58;0.60;;;19.90;73.10;;;;;;6272625;22;45214;-69
2022/11/10 09:00:16;;;;;;;3.55;0.80;;;19.90;72.80;;;;;;6273155;22;45195;-69
2022/11/10 09:02:42;;;;;;;3.28;0.93;;;19.90;72.40;;;;;;6274117;22;46294;-69
2022/11/10 09:05:10;;;;;;;2.55;0.65;;;19.90;72.20;;;;;;6273267;22;45339;-69
2022/11/10 09:07:44;;;;;;;2.15;0.60;;;19.90;71.70;;;;;;6274064;22;45435;-69
2022/11/10 09:10:11;;;;;;;2.97;0.70;;;19.90;71.40;;;;;;6273142;22;45386;-69
2022/11/10 09:12:38;;;;;;;2.50;0.88;;;19.90;71.30;;;;;;6273922;22;46581;-69
2022/11/10 09:15:06;;;;;;;7.88;1.20;;;19.90;71.80;;;;;;6273139;22;45667;-69
2022/11/10 09:17:33;;;;;;;3.20;0.90;;;19.90;72.50;;;;;;6272608;22;45387;-69
2022/11/10 09:19:59;;;;;;;3.38;0.65;;;19.90;72.90;;;;;;6274077;22;45452;-69
2022/11/10 09:22:27;;;;;;;2.42;0.82;;;20.00;73.20;;;;;;6273152;22;46182;-69
2022/11/10 09:24:55;;;;;;;4.25;0.70;;;20.00;73.20;;;;;;6274525;22;45748;-69
2022/11/10 09:27:22;;;;;;;2.95;1.10;;;20.00;73.20;;;;;;6274102;22;45446;-69
2022/11/10 09:29:48;;;;;;;2.90;0.80;;;20.00;73.00;;;;;;6274424;22;45471;-69
2022/11/10 09:32:16;;;;;;;1.48;0.68;;;20.00;73.00;;;;;;6273649;22;46323;-69
2022/11/10 09:34:43;;;;;;;4.70;0.88;;;20.00;72.90;;;;;;6266458;22;45917;-69
2022/11/10 09:37:09;;;;;;;3.88;1.00;;;20.00;73.00;;;;;;6273469;22;45355;-69
2022/11/10 09:39:36;;;;;;;2.20;0.80;;;20.00;73.00;;;;;;6273662;22;45534;-69
2022/11/10 09:42:06;;;;;;;4.30;1.35;;;20.00;73.00;;;;;;6274226;22;47523;-69
2022/11/10 09:44:38;;;;;;;4.38;0.85;;;20.00;72.90;;;;;;6272252;22;45307;-70
2022/11/10 09:47:13;;;;;;;3.83;0.93;;;20.00;73.00;;;;;;6273464;22;45304;-69
2022/11/10 09:49:46;;;;;;;4.30;0.90;;;20.00;72.90;;;;;;6273888;22;45499;-69
2022/11/10 09:52:14;;;;;;;2.30;0.95;;;20.00;72.90;;;;;;6273768;22;45339;-69
2022/11/10 09:54:45;;;;;;;2.58;0.70;;;20.00;73.00;;;;;;6272509;22;45373;-69
2022/11/10 09:57:16;;;;;;;6.22;1.00;;;20.00;72.90;;;;;;6274062;22;45586;-69
2022/11/10 09:59:44;;;;;;;4.68;0.80;;;20.00;72.90;;;;;;6274329;22;45421;-69
2022/11/10 10:02:20;;;;;;;4.22;0.77;;;20.00;72.90;;;;;;6273527;22;47285;-69
2022/11/10 10:05:22;;;;;;;4.18;1.10;;;20.00;72.90;;;;;;6272656;22;45441;-67
2022/11/10 10:07:56;;;;;;;4.82;1.13;;;20.00;72.80;;;;;;6274022;22;45352;-68
2022/11/10 10:10:32;;;;;;;6.57;1.45;;;20.00;72.80;;;;;;6273165;22;45311;-69
2022/11/10 10:13:31;;;;;;;3.00;0.82;;;20.00;72.80;;;;;;6274541;22;46396;-68
2022/11/10 10:16:09;;;;;;;5.15;1.30;;;20.00;72.80;;;;;;6262479;22;45342;-68
2022/11/10 10:18:44;;;;;;;4.18;1.23;;;20.00;72.90;;;;;;6274221;22;45251;-68
2022/11/10 10:21:28;;;;;;;9.07;1.30;;;20.00;72.90;;;;;;6273011;22;45356;-69
2022/11/10 10:23:58;;;;;;;7.25;1.30;;;20.00;72.80;;;;;;6274157;22;48239;-69
2022/11/10 10:26:28;;;;;;;5.13;1.00;;;20.10;72.80;;;;;;6273387;22;45907;-69
2022/11/10 10:29:01;;;;;;;4.45;1.20;;;20.10;72.90;;;;;;6274473;22;45448;-68
2022/11/10 10:31:34;;;;;;;3.28;1.20;;;20.10;72.90;;;;;;6273068;22;45315;-68
2022/11/10 10:34:02;;;;;;;2.08;0.70;;;20.10;73.00;;;;;;6274461;22;46235;-69
2022/11/10 10:36:31;;;;;;;3.25;0.95;;;20.10;73.20;;;;;;6272206;22;45231;-69
2022/11/10 10:39:02;;;;;;;4.03;0.85;;;20.10;73.50;;;;;;6272420;22;45184;-69
2022/11/10 10:41:30;;;;;;;3.75;0.95;;;20.10;73.60;;;;;;6271158;22;45257;-69
2022/11/10 10:44:00;;;;;;;3.53;1.00;;;20.00;73.70;;;;;;6272308;22;47398;-68
2022/11/10 10:46:30;;;;;;;3.47;0.90;;;20.00;73.80;;;;;;6273348;22;45553;-69
2022/11/10 10:49:16;;;;;;;3.70;0.93;;;20.00;73.90;;;;;;6271039;22;45277;-69
2022/11/10 10:51:43;;;;;;;3.30;0.93;;;20.00;74.10;;;;;;6273524;22;45244;-68
2022/11/10 10:54:30;;;;;;;2.75;1.00;;;20.00;74.20;;;;;;6272229;22;46381;-68
2022/11/10 10:57:06;;;;;;;2.55;0.70;;;20.00;74.20;;;;;;6273274;22;45250;-69
2022/11/10 10:59:34;;;;;;;1.95;0.50;;;20.00;74.40;;;;;;6272164;22;45183;-68
2022/11/10 11:02:01;;;;;;;2.42;0.68;;;20.00;74.30;;;;;;6273312;22;45463;-69
2022/11/10 11:04:33;;;;;;;2.50;0.90;;;20.00;74.40;;;;;;6273848;22;47466;-69
2022/11/10 11:07:01;;;;;;;2.80;0.70;;;20.00;74.40;;;;;;6273136;22;45760;-69
2022/11/10 11:09:38;;;;;;;2.80;0.70;;;20.00;74.40;;;;;;6273497;22;45334;-69
2022/11/10 11:12:07;;;;;;;1.67;0.60;;;20.00;74.30;;;;;;6273998;22;45334;-69
2022/11/10 11:14:35;;;;;;;1.90;0.50;;;20.10;74.50;;;;;;6273675;22;46308;-69
2022/11/10 11:17:04;;;;;;;2.83;0.80;;;20.10;74.50;;;;;;6273830;22;45341;-69
2022/11/10 11:19:33;;;;;;;2.88;0.80;;;20.10;74.50;;;;;;6272697;22;45258;-69
2022/11/10 11:22:36;;;;;;;1.08;0.50;;;20.10;74.60;;;;;;6274350;22;45457;-69
2022/11/10 11:25:11;;;;;;;1.30;0.50;;;20.10;74.60;;;;;;6273628;22;46594;-69
2022/11/10 11:27:49;;;;;;;2.95;0.57;;;20.10;74.70;;;;;;6274405;22;45376;-69
2022/11/10 11:30:18;;;;;;;2.75;0.70;;;20.10;74.50;;;;;;6273401;22;45450;-69
2022/11/10 11:33:06;;;;;;;1.88;0.73;;;20.10;74.30;;;;;;6274090;22;45164;-68
2022/11/10 11:35:42;;;;;;;4.05;0.90;;;20.10;74.30;;;;;;6273085;22;45538;-68
2022/11/10 11:38:13;;;;;;;1.40;0.43;;;20.10;74.20;;;;;;6273600;22;45442;-68
2022/11/10 11:40:56;;;;;;;1.05;0.60;;;20.10;74.20;;;;;;6273316;22;45170;-69
2022/11/10 11:43:39;;;;;;;1.00;0.40;;;20.10;74.30;;;;;;6274148;22;45418;-68
2022/11/10 11:46:16;;;;;;;1.58;0.50;;;20.10;74.40;;;;;;6273673;22;46996;-69
2022/11/10 11:48:51;;;;;;;2.70;0.77;;;20.10;74.40;;;;;;6273260;22;45203;-68
2022/11/10 11:51:25;;;;;;;1.50;0.40;;;20.10;75.70;;;;;;6272949;22;45286;-69
2022/11/10 11:54:27;;;;;;;3.30;0.80;;;20.10;74.90;;;;;;6273761;22;45346;-69
2022/11/10 11:56:59;;;;;;;3.28;1.00;;;20.10;74.80;;;;;;6273421;22;47476;-68
2022/11/10 11:59:45;;;;;;;1.42;0.60;;;20.10;74.90;;;;;;6272642;22;45747;-68
2022/11/10 12:02:48;;;;;;;1.98;0.60;;;20.10;76.10;;;;;;6273420;22;45257;-69
2022/11/10 12:05:33;;;;;;;2.13;0.40;;;20.10;75.00;;;;;;6272479;22;45371;-69
2022/11/10 12:08:06;;;;;;;0.60;0.40;;;20.10;74.90;;;;;;6272716;22;45307;-69
2022/11/10 12:10:43;;;;;;;1.77;0.60;;;20.10;74.80;;;;;;6270182;22;45235;-68
2022/11/10 12:13:36;;;;;;;4.70;0.80;;;20.10;74.60;;;;;;6272868;22;45307;-67
2022/11/10 12:16:13;;;;;;;4.90;0.75;;;20.10;76.10;;;;;;6273409;22;45380;-68
2022/11/10 12:18:47;;;;;;;3.60;0.80;;;20.20;78.40;;;;;;6273168;22;46270;-69
2022/11/10 12:21:25;;;;;;;5.50;1.30;;;20.20;79.00;;;;;;6272582;22;45176;-68
2022/11/10 12:27:18;;;;;;;1.40;0.50;;;20.20;80.10;;;;;;6275070;22;45191;-69
2022/11/10 12:29:53;;;;;;;3.22;0.70;;;20.20;80.10;;;;;;6272753;22;48697;-69
2022/11/10 12:32:26;;;;;;;4.30;0.70;;;20.20;79.70;;;;;;6270966;22;45346;-69
2022/11/10 12:34:58;;;;;;;4.38;0.70;;;20.20;80.00;;;;;;6273274;22;45233;-68
2022/11/10 12:37:29;;;;;;;4.68;0.60;;;20.20;79.00;;;;;;6276468;22;45128;-69
2022/11/10 12:40:01;;;;;;;2.63;0.60;;;20.20;78.50;;;;;;6274290;22;45416;-69
2022/11/10 12:42:32;;;;;;;5.60;0.80;;;20.10;78.80;;;;;;6271240;22;45445;-69
2022/11/10 12:45:01;;;;;;;1.50;0.50;;;20.10;79.30;;;;;;6272777;22;45368;-69
2022/11/10 12:47:33;;;;;;;2.38;0.65;;;20.10;79.30;;;;;;6272186;22;45295;-69
2022/11/10 12:50:19;;;;;;;1.02;0.50;;;20.10;79.60;;;;;;6270590;22;48280;-69
2022/11/10 12:52:50;;;;;;;1.83;0.47;;;20.10;79.50;;;;;;6272229;22;45316;-69
2022/11/10 12:55:17;;;;;;;1.38;0.50;;;20.10;79.50;;;;;;6271256;22;45308;-68
2022/11/10 12:57:44;;;;;;;1.48;0.45;;;20.10;79.80;;;;;;6273096;22;45425;-69
2022/11/10 13:00:25;;;;;;;1.17;0.40;;;20.10;79.90;;;;;;6271271;22;45547;-69
2022/11/10 13:02:54;;;;;;;0.85;0.40;;;20.10;80.00;;;;;;6271468;22;45433;-69
2022/11/10 13:05:39;;;;;;;2.08;0.68;;;20.10;80.20;;;;;;6272292;22;45275;-68
2022/11/10 13:08:23;;;;;;;0.88;0.40;;;20.10;80.20;;;;;;6274569;22;45314;-69
2022/11/10 13:10:56;;;;;;;0.43;0.30;;;20.10;80.20;;;;;;6266525;22;46267;-69
2022/11/10 13:13:24;;;;;;;1.50;0.40;;;20.10;80.20;;;;;;6273915;22;45691;-69
2022/11/10 13:15:56;;;;;;;1.60;0.35;;;20.10;80.30;;;;;;6272291;22;45375;-69
2022/11/10 13:18:59;;;;;;;0.80;0.40;;;20.10;80.30;;;;;;6273860;22;45250;-69
2022/11/10 13:22:05;;;;;;;2.03;0.50;;;20.10;80.30;;;;;;6272235;22;45360;-68